createdAt,value
2023-01-30T00:00:58.275Z,96.43
2023-01-30T00:01:58.298Z,96.33
2023-01-30T00:02:58.239Z,96.33
2023-01-30T00:03:58.237Z,96.22
2023-01-30T00:04:58.257Z,96.33
2023-01-30T00:05:58.254Z,96.28
2023-01-30T00:06:58.215Z,96.39
2023-01-30T00:07:58.188Z,96.39
2023-01-30T00:08:58.174Z,96.39
2023-01-30T00:09:58.176Z,96.28
2023-01-30T00:10:58.142Z,96.39
2023-01-30T00:11:58.145Z,96.28
2023-01-30T00:12:58.115Z,96.28
2023-01-30T00:13:58.114Z,96.39
2023-01-30T00:14:58.090Z,96.49
2023-01-30T00:15:58.103Z,96.49
2023-01-30T00:16:58.105Z,96.49
2023-01-30T00:17:58.048Z,96.70
2023-01-30T00:18:58.032Z,96.80
2023-01-30T00:19:58.019Z,96.80
2023-01-30T00:20:58.009Z,96.70
2023-01-30T00:21:58.135Z,96.70
2023-01-30T00:23:01.118Z,96.70
2023-01-30T00:23:57.975Z,96.70
2023-01-30T00:24:58.061Z,96.80
2023-01-30T00:25:57.939Z,96.76
2023-01-30T00:26:57.952Z,96.76
2023-01-30T00:27:57.913Z,96.76
2023-01-30T00:28:57.902Z,96.66
2023-01-30T00:30:03.089Z,96.76
2023-01-30T00:30:58.909Z,96.66
2023-01-30T00:31:57.919Z,96.66
2023-01-30T00:32:57.864Z,96.55
2023-01-30T00:33:57.835Z,96.55
2023-01-30T00:34:57.835Z,96.66
2023-01-30T00:35:57.840Z,96.55
2023-01-30T00:37:58.780Z,96.61
2023-01-30T00:38:57.771Z,96.61
2023-01-30T00:39:57.819Z,96.51
2023-01-30T00:40:57.770Z,96.51
2023-01-30T00:41:57.759Z,96.51
2023-01-30T00:42:57.719Z,96.30
2023-01-30T00:43:57.782Z,96.41
2023-01-30T00:44:57.702Z,96.30
2023-01-30T00:45:57.725Z,96.41
2023-01-30T00:46:57.721Z,96.41
2023-01-30T00:47:57.649Z,96.41
2023-01-30T00:48:57.654Z,96.30
2023-01-30T00:49:57.629Z,96.30
2023-01-30T00:50:57.652Z,96.30
2023-01-30T00:51:57.619Z,96.15
2023-01-30T00:52:57.598Z,96.15
2023-01-30T00:53:57.579Z,96.15
2023-01-30T00:54:57.563Z,96.15
2023-01-30T00:55:57.539Z,95.94
2023-01-30T00:56:57.571Z,95.94
2023-01-30T00:57:57.517Z,95.84
2023-01-30T00:58:57.507Z,95.94
2023-01-30T00:59:57.533Z,96.04
2023-01-30T01:00:57.484Z,95.94
2023-01-30T01:01:57.507Z,96.04
2023-01-30T01:02:57.482Z,96.04
2023-01-30T01:03:57.440Z,96.04
2023-01-30T01:04:57.443Z,96.04
2023-01-30T01:05:57.421Z,96.15
2023-01-30T01:06:57.458Z,96.15
2023-01-30T01:07:57.553Z,96.15
2023-01-30T01:08:57.381Z,96.15
2023-01-30T01:09:57.383Z,96.36
2023-01-30T01:10:57.369Z,96.30
2023-01-30T01:11:57.364Z,96.30
2023-01-30T01:12:57.328Z,96.41
2023-01-30T01:13:57.335Z,96.51
2023-01-30T01:14:57.315Z,96.72
2023-01-30T01:15:57.381Z,97.03
2023-01-30T01:16:57.452Z,97.13
2023-01-30T01:17:57.270Z,97.24
2023-01-30T01:18:57.264Z,97.44
2023-01-30T01:19:57.232Z,97.55
2023-01-30T01:20:57.247Z,97.44
2023-01-30T01:21:57.212Z,97.44
2023-01-30T01:22:57.250Z,97.55
2023-01-30T01:23:57.179Z,97.55
2023-01-30T01:24:57.204Z,97.34
2023-01-30T01:25:57.149Z,97.13
2023-01-30T01:26:57.188Z,97.13
2023-01-30T01:27:57.134Z,97.34
2023-01-30T01:28:57.161Z,97.24
2023-01-30T01:29:57.131Z,97.13
2023-01-30T01:30:57.137Z,97.03
2023-01-30T01:31:57.159Z,96.92
2023-01-30T01:32:57.071Z,96.92
2023-01-30T01:33:57.065Z,96.92
2023-01-30T01:34:57.037Z,96.92
2023-01-30T01:35:57.028Z,96.92
2023-01-30T01:36:57.031Z,96.72
2023-01-30T01:37:57.003Z,96.82
2023-01-30T01:38:57.013Z,97.13
2023-01-30T01:39:56.963Z,97.24
2023-01-30T01:40:56.949Z,97.44
2023-01-30T01:41:56.947Z,97.65
2023-01-30T01:42:56.934Z,98.07
2023-01-30T01:43:56.936Z,98.27
2023-01-30T01:44:56.923Z,98.69
2023-01-30T01:45:56.985Z,98.90
2023-01-30T01:46:56.969Z,99.01
2023-01-30T01:47:56.896Z,99.32
2023-01-30T01:48:56.866Z,99.32
2023-01-30T01:49:56.836Z,99.42
2023-01-30T01:50:56.905Z,99.42
2023-01-30T01:51:56.873Z,99.42
2023-01-30T01:52:57.070Z,99.84
2023-01-30T01:53:56.787Z,99.84
2023-01-30T01:54:56.801Z,99.99
2023-01-30T01:55:56.785Z,99.99
2023-01-30T01:56:56.810Z,99.99
2023-01-30T01:57:56.725Z,99.99
2023-01-30T01:58:56.741Z,99.99
2023-01-30T01:59:56.765Z,99.99
2023-01-30T02:00:56.725Z,99.99
2023-01-30T02:01:56.771Z,99.99
2023-01-30T02:02:56.712Z,99.99
2023-01-30T02:03:56.676Z,99.99
2023-01-30T02:04:56.725Z,99.99
2023-01-30T02:05:56.631Z,99.99
2023-01-30T02:06:56.623Z,99.99
2023-01-30T02:07:56.615Z,99.99
2023-01-30T02:08:56.604Z,99.99
2023-01-30T02:09:56.580Z,99.99
2023-01-30T02:10:56.564Z,99.99
2023-01-30T02:11:56.574Z,99.99
2023-01-30T02:12:56.531Z,99.99
2023-01-30T02:13:56.531Z,99.99
2023-01-30T02:14:56.566Z,99.99
2023-01-30T02:15:56.511Z,99.99
2023-01-30T02:16:56.504Z,99.99
2023-01-30T02:17:56.474Z,99.99
2023-01-30T02:18:56.466Z,99.99
2023-01-30T02:19:56.471Z,99.99
2023-01-30T02:20:56.452Z,99.99
2023-01-30T02:21:56.448Z,99.99
2023-01-30T02:22:56.421Z,99.99
2023-01-30T02:23:56.410Z,99.99
2023-01-30T02:24:56.402Z,99.99
2023-01-30T02:25:56.638Z,99.99
2023-01-30T02:26:56.374Z,99.99
2023-01-30T02:27:56.395Z,99.99
2023-01-30T02:28:56.347Z,99.99
2023-01-30T02:29:56.329Z,99.99
2023-01-30T02:30:56.473Z,99.99
2023-01-30T02:31:56.453Z,99.99
2023-01-30T02:32:56.320Z,99.99
2023-01-30T02:33:56.301Z,99.99
2023-01-30T02:34:56.252Z,99.99
2023-01-30T02:35:56.259Z,99.99
2023-01-30T02:36:56.241Z,99.99
2023-01-30T02:37:56.236Z,99.99
2023-01-30T02:38:56.196Z,99.99
2023-01-30T02:39:56.211Z,99.99
2023-01-30T02:40:56.241Z,99.99
2023-01-30T02:41:56.185Z,99.99
2023-01-30T02:42:56.163Z,99.99
2023-01-30T02:43:56.137Z,99.99
2023-01-30T02:44:56.166Z,99.99
2023-01-30T02:45:56.170Z,99.99
2023-01-30T02:46:56.103Z,99.99
2023-01-30T02:47:56.129Z,99.99
2023-01-30T02:48:56.076Z,99.99
2023-01-30T02:49:56.104Z,99.99
2023-01-30T02:50:56.110Z,99.99
2023-01-30T02:51:56.051Z,99.99
2023-01-30T02:52:56.033Z,99.99
2023-01-30T02:53:56.013Z,99.99
2023-01-30T02:54:56.077Z,99.99
2023-01-30T02:55:55.971Z,99.99
2023-01-30T02:56:55.988Z,99.99
2023-01-30T02:57:56.032Z,99.99
2023-01-30T02:58:55.944Z,99.99
2023-01-30T02:59:55.925Z,99.99
2023-01-30T03:00:55.957Z,99.99
2023-01-30T03:01:55.939Z,99.99
2023-01-30T03:02:55.897Z,99.99
2023-01-30T03:03:55.873Z,99.99
2023-01-30T03:04:55.928Z,99.99
2023-01-30T03:05:55.853Z,99.99
2023-01-30T03:06:55.868Z,99.99
2023-01-30T03:07:55.874Z,99.99
2023-01-30T03:08:55.857Z,99.99
2023-01-30T03:09:55.803Z,99.99
2023-01-30T03:10:55.815Z,99.99
2023-01-30T03:11:55.800Z,99.99
2023-01-30T03:12:55.809Z,99.99
2023-01-30T03:13:55.771Z,99.99
2023-01-30T03:14:55.746Z,99.99
2023-01-30T03:15:55.812Z,99.99
2023-01-30T03:16:55.735Z,99.99
2023-01-30T03:17:55.733Z,99.99
2023-01-30T03:18:55.734Z,99.99
2023-01-30T03:19:55.672Z,99.99
2023-01-30T03:20:55.662Z,99.99
2023-01-30T03:21:55.745Z,99.99
2023-01-30T03:22:55.715Z,99.99
2023-01-30T03:23:55.615Z,99.99
2023-01-30T03:24:55.658Z,99.99
2023-01-30T03:25:55.620Z,99.99
2023-01-30T03:26:55.604Z,99.99
2023-01-30T03:27:55.758Z,99.99
2023-01-30T03:28:55.563Z,99.99
2023-01-30T03:29:55.553Z,99.99
2023-01-30T03:30:55.618Z,99.99
2023-01-30T03:31:55.569Z,99.99
2023-01-30T03:32:55.542Z,99.99
2023-01-30T03:33:55.493Z,99.99
2023-01-30T03:34:56.806Z,99.99
2023-01-30T03:35:55.491Z,99.99
2023-01-30T03:36:55.457Z,99.99
2023-01-30T03:37:55.538Z,99.99
2023-01-30T03:38:55.454Z,99.99
2023-01-30T03:39:55.411Z,99.99
2023-01-30T03:40:55.407Z,99.99
2023-01-30T03:41:55.471Z,99.99
2023-01-30T03:42:55.402Z,99.99
2023-01-30T03:43:55.474Z,99.99
2023-01-30T03:44:55.362Z,99.99
2023-01-30T03:45:55.373Z,99.99
2023-01-30T03:46:55.358Z,99.99
2023-01-30T03:47:55.341Z,99.99
2023-01-30T03:48:55.306Z,99.99
2023-01-30T03:49:55.299Z,99.99
2023-01-30T03:50:55.285Z,99.99
2023-01-30T03:51:55.261Z,99.99
2023-01-30T03:52:55.259Z,99.99
2023-01-30T03:53:55.246Z,99.99
2023-01-30T03:54:55.268Z,99.99
2023-01-30T03:55:55.229Z,99.99
2023-01-30T03:56:55.210Z,99.99
2023-01-30T03:57:55.241Z,99.99
2023-01-30T03:58:55.169Z,99.99
2023-01-30T03:59:55.169Z,99.99
2023-01-30T04:00:56.073Z,99.99
2023-01-30T04:01:55.138Z,99.99
2023-01-30T04:02:55.154Z,99.99
2023-01-30T04:03:55.120Z,99.99
2023-01-30T04:04:55.144Z,99.99
2023-01-30T04:05:55.089Z,99.99
2023-01-30T04:06:55.101Z,99.99
2023-01-30T04:07:55.077Z,99.99
2023-01-30T04:08:55.030Z,99.99
2023-01-30T04:09:55.035Z,99.99
2023-01-30T04:10:55.045Z,99.99
2023-01-30T04:11:55.028Z,99.99
2023-01-30T04:12:55.016Z,99.99
2023-01-30T04:13:55.030Z,99.99
2023-01-30T04:14:54.966Z,99.99
2023-01-30T04:15:54.950Z,99.99
2023-01-30T04:16:54.941Z,99.99
2023-01-30T04:17:55.036Z,99.99
2023-01-30T04:18:54.927Z,99.99
2023-01-30T04:19:54.916Z,99.99
2023-01-30T04:20:54.924Z,99.99
2023-01-30T04:21:54.888Z,99.99
2023-01-30T04:22:54.877Z,99.99
2023-01-30T04:23:54.861Z,99.99
2023-01-30T04:24:54.825Z,99.99
2023-01-30T04:25:54.828Z,99.99
2023-01-30T04:26:54.812Z,99.99
2023-01-30T04:27:54.806Z,99.99
2023-01-30T04:28:54.773Z,99.99
2023-01-30T04:29:54.765Z,99.99
2023-01-30T04:30:54.838Z,99.99
2023-01-30T04:31:54.753Z,99.99
2023-01-30T04:32:54.745Z,99.99
2023-01-30T04:33:54.763Z,99.99
2023-01-30T04:34:54.702Z,99.99
2023-01-30T04:35:54.683Z,99.99
2023-01-30T04:36:54.731Z,99.99
2023-01-30T04:37:54.720Z,99.99
2023-01-30T04:38:54.673Z,99.99
2023-01-30T04:39:54.660Z,99.99
2023-01-30T04:40:54.648Z,99.99
2023-01-30T04:41:54.616Z,99.99
2023-01-30T04:42:54.599Z,99.99
2023-01-30T04:43:54.603Z,99.99
2023-01-30T04:44:54.578Z,99.99
2023-01-30T04:45:54.558Z,99.99
2023-01-30T04:46:54.559Z,99.99
2023-01-30T04:47:54.571Z,99.99
2023-01-30T04:48:54.520Z,99.99
2023-01-30T04:49:54.513Z,99.99
2023-01-30T04:50:54.501Z,99.99
2023-01-30T04:51:54.522Z,99.99
2023-01-30T04:52:54.598Z,99.99
2023-01-30T04:53:54.458Z,99.99
2023-01-30T04:54:54.451Z,99.99
2023-01-30T04:55:54.433Z,99.99
2023-01-30T04:56:54.429Z,99.99
2023-01-30T04:57:54.430Z,99.99
2023-01-30T04:58:54.386Z,99.99
2023-01-30T04:59:54.386Z,99.99
2023-01-30T05:00:54.469Z,99.99
2023-01-30T05:01:54.396Z,99.99
2023-01-30T05:02:54.384Z,99.99
2023-01-30T05:03:54.335Z,99.99
2023-01-30T05:04:54.309Z,99.99
2023-01-30T05:05:54.326Z,99.99
2023-01-30T05:06:54.294Z,99.99
2023-01-30T05:07:54.308Z,99.99
2023-01-30T05:08:54.282Z,99.99
2023-01-30T05:09:54.247Z,99.99
2023-01-30T05:10:54.235Z,99.99
2023-01-30T05:11:54.225Z,99.99
2023-01-30T05:12:54.226Z,99.99
2023-01-30T05:13:54.203Z,99.99
2023-01-30T05:14:54.174Z,99.99
2023-01-30T05:15:54.175Z,99.99
2023-01-30T05:16:54.181Z,99.99
2023-01-30T05:17:54.181Z,99.99
2023-01-30T05:18:54.136Z,99.99
2023-01-30T05:19:54.133Z,99.99
2023-01-30T05:20:54.117Z,99.99
2023-01-30T05:21:54.102Z,99.99
2023-01-30T05:22:54.116Z,99.99
2023-01-30T05:23:54.076Z,99.99
2023-01-30T05:24:54.065Z,99.99
2023-01-30T05:25:54.052Z,99.99
2023-01-30T05:26:54.032Z,99.99
2023-01-30T05:27:54.011Z,99.99
2023-01-30T05:28:54.013Z,99.99
2023-01-30T05:29:53.992Z,99.99
2023-01-30T05:30:53.991Z,99.99
2023-01-30T05:31:53.981Z,99.99
2023-01-30T05:32:53.971Z,99.99
2023-01-30T05:33:53.989Z,99.99
2023-01-30T05:34:53.932Z,99.99
2023-01-30T05:35:53.941Z,99.99
2023-01-30T05:36:53.897Z,99.99
2023-01-30T05:37:54.042Z,99.99
2023-01-30T05:38:53.892Z,99.99
2023-01-30T05:39:53.880Z,99.99
2023-01-30T05:40:53.849Z,99.99
2023-01-30T05:41:53.839Z,99.99
2023-01-30T05:42:53.934Z,99.99
2023-01-30T05:43:53.844Z,99.99
2023-01-30T05:44:53.799Z,99.99
2023-01-30T05:45:53.794Z,99.99
2023-01-30T05:46:53.828Z,99.99
2023-01-30T05:47:58.464Z,99.99
2023-01-30T05:48:54.774Z,99.99
2023-01-30T05:49:53.748Z,99.99
2023-01-30T05:50:53.721Z,99.99
2023-01-30T05:51:53.707Z,99.99
2023-01-30T05:52:53.679Z,99.99
2023-01-30T05:53:53.713Z,99.99
2023-01-30T05:54:53.697Z,99.99
2023-01-30T05:55:53.649Z,99.99
2023-01-30T05:56:53.664Z,99.99
2023-01-30T05:57:53.635Z,99.99
2023-01-30T05:58:53.642Z,99.99
2023-01-30T05:59:53.610Z,99.99
2023-01-30T06:00:53.592Z,99.99
2023-01-30T06:01:53.589Z,99.99
2023-01-30T06:02:53.607Z,99.99
2023-01-30T06:03:53.625Z,99.99
2023-01-30T06:04:53.560Z,99.99
2023-01-30T06:05:53.539Z,99.99
2023-01-30T06:06:53.529Z,99.99
2023-01-30T06:07:53.531Z,99.99
2023-01-30T06:08:53.498Z,99.99
2023-01-30T06:09:53.476Z,99.99
2023-01-30T06:10:53.452Z,99.99
2023-01-30T06:11:53.442Z,99.99
2023-01-30T06:12:53.428Z,99.99
2023-01-30T06:13:53.435Z,99.99
2023-01-30T06:14:53.406Z,99.99
2023-01-30T06:15:53.410Z,99.99
2023-01-30T06:16:53.435Z,99.99
2023-01-30T06:17:53.379Z,99.99
2023-01-30T06:18:53.372Z,99.99
2023-01-30T06:19:53.352Z,99.99
2023-01-30T06:20:53.357Z,99.99
2023-01-30T06:21:53.312Z,99.99
2023-01-30T06:22:53.326Z,99.99
2023-01-30T06:23:53.337Z,99.99
2023-01-30T06:24:53.281Z,99.99
2023-01-30T06:25:53.254Z,99.99
2023-01-30T06:26:53.335Z,99.99
2023-01-30T06:27:53.253Z,99.99
2023-01-30T06:28:53.243Z,99.99
2023-01-30T06:29:53.221Z,99.99
2023-01-30T06:30:53.320Z,99.99
2023-01-30T06:31:53.220Z,99.99
2023-01-30T06:32:53.184Z,99.99
2023-01-30T06:33:53.180Z,99.99
2023-01-30T06:34:53.157Z,99.99
2023-01-30T06:35:53.136Z,99.99
2023-01-30T06:36:53.154Z,99.99
2023-01-30T06:37:53.129Z,99.99
2023-01-30T06:38:53.123Z,99.99
2023-01-30T06:39:53.087Z,99.99
2023-01-30T06:40:53.077Z,99.99
2023-01-30T06:41:53.068Z,99.99
2023-01-30T06:42:53.049Z,99.99
2023-01-30T06:43:53.028Z,99.99
2023-01-30T06:44:53.034Z,99.99
2023-01-30T06:45:53.057Z,99.99
2023-01-30T06:46:53.021Z,99.99
2023-01-30T06:47:52.986Z,99.99
2023-01-30T06:48:52.999Z,99.99
2023-01-30T06:49:52.969Z,99.99
2023-01-30T06:50:52.986Z,99.99
2023-01-30T06:51:52.926Z,99.99
2023-01-30T06:52:52.960Z,99.99
2023-01-30T06:53:53.429Z,99.99
2023-01-30T06:54:52.905Z,99.99
2023-01-30T06:55:52.888Z,99.99
2023-01-30T06:56:52.870Z,99.99
2023-01-30T06:57:52.860Z,99.99
2023-01-30T06:58:52.877Z,99.99
2023-01-30T06:59:52.836Z,99.99
2023-01-30T07:00:52.829Z,99.99
2023-01-30T07:01:52.852Z,99.99
2023-01-30T07:02:52.798Z,99.99
2023-01-30T07:03:52.839Z,99.99
2023-01-30T07:04:52.809Z,99.99
2023-01-30T07:05:52.811Z,99.99
2023-01-30T07:06:52.744Z,99.99
2023-01-30T07:07:52.715Z,99.99
2023-01-30T07:08:52.726Z,99.99
2023-01-30T07:10:06.953Z,99.99
2023-01-30T07:10:53.685Z,99.99
2023-01-30T07:11:52.683Z,99.99
2023-01-30T07:12:52.669Z,99.99
2023-01-30T07:13:52.662Z,99.99
2023-01-30T07:14:52.632Z,99.99
2023-01-30T07:15:52.625Z,99.99
2023-01-30T07:16:52.626Z,99.99
2023-01-30T07:17:52.592Z,99.99
2023-01-30T07:18:52.597Z,99.99
2023-01-30T07:19:52.567Z,99.99
2023-01-30T07:20:52.564Z,99.99
2023-01-30T07:21:52.552Z,99.99
2023-01-30T07:22:52.539Z,99.99
2023-01-30T07:23:52.525Z,99.99
2023-01-30T07:24:52.502Z,99.99
2023-01-30T07:25:52.491Z,99.99
2023-01-30T07:26:52.479Z,99.99
2023-01-30T07:27:52.464Z,99.99
2023-01-30T07:28:52.470Z,99.99
2023-01-30T07:29:52.612Z,99.99
2023-01-30T07:30:52.813Z,99.99
2023-01-30T07:31:52.499Z,99.99
2023-01-30T07:32:52.403Z,99.99
2023-01-30T07:33:52.391Z,99.99
2023-01-30T07:34:52.379Z,99.99
2023-01-30T07:35:52.356Z,99.99
2023-01-30T07:36:52.352Z,99.99
2023-01-30T07:37:52.342Z,99.99
2023-01-30T07:38:52.330Z,99.99
2023-01-30T07:39:52.317Z,99.99
2023-01-30T07:40:52.317Z,99.99
2023-01-30T07:41:52.290Z,99.99
2023-01-30T07:42:52.282Z,99.99
2023-01-30T07:43:52.278Z,99.99
2023-01-30T07:44:52.247Z,99.99
2023-01-30T07:45:52.236Z,99.99
2023-01-30T07:46:52.295Z,99.99
2023-01-30T07:47:52.210Z,99.99
2023-01-30T07:48:52.249Z,99.99
2023-01-30T07:49:52.177Z,99.99
2023-01-30T07:50:52.179Z,99.99
2023-01-30T07:51:52.158Z,99.99
2023-01-30T07:52:52.161Z,99.86
2023-01-30T07:53:52.136Z,99.34
2023-01-30T07:54:52.130Z,99.04
2023-01-30T07:55:52.298Z,99.04
2023-01-30T07:56:52.105Z,98.83
2023-01-30T07:57:52.093Z,98.52
2023-01-30T07:58:52.099Z,98.16
2023-01-30T07:59:52.052Z,97.13
2023-01-30T08:00:52.055Z,97.23
2023-01-30T08:01:52.031Z,96.61
2023-01-30T08:02:52.033Z,96.47
2023-01-30T08:03:52.024Z,95.95
2023-01-30T08:04:52.025Z,95.12
2023-01-30T08:05:51.965Z,95.22
2023-01-30T08:06:52.944Z,94.50
2023-01-30T08:07:51.947Z,94.40
2023-01-30T08:08:51.954Z,94.09
2023-01-30T08:09:51.914Z,94.60
2023-01-30T08:10:51.950Z,94.50
2023-01-30T08:11:51.885Z,94.40
2023-01-30T08:12:51.881Z,94.92
2023-01-30T08:13:51.889Z,94.50
2023-01-30T08:14:51.854Z,93.98
2023-01-30T08:15:51.852Z,93.68
2023-01-30T08:16:51.913Z,92.85
2023-01-30T08:17:52.083Z,93.05
2023-01-30T08:18:51.826Z,92.44
2023-01-30T08:19:51.784Z,93.16
2023-01-30T08:20:52.532Z,92.60
2023-01-30T08:21:51.757Z,93.47
2023-01-30T08:22:51.759Z,93.68
2023-01-30T08:23:51.741Z,94.40
2023-01-30T08:24:51.712Z,93.88
2023-01-30T08:25:51.710Z,94.40
2023-01-30T08:26:51.692Z,94.50
2023-01-30T08:27:51.693Z,94.92
2023-01-30T08:28:51.691Z,94.67
2023-01-30T08:29:51.682Z,94.35
2023-01-30T08:30:51.738Z,93.84
2023-01-30T08:31:51.630Z,94.04
2023-01-30T08:32:51.611Z,94.04
2023-01-30T08:33:51.624Z,93.94
2023-01-30T08:34:51.581Z,93.94
2023-01-30T08:35:51.579Z,94.25
2023-01-30T08:36:51.569Z,94.81
2023-01-30T08:37:51.543Z,93.88
2023-01-30T08:38:51.556Z,94.19
2023-01-30T08:39:51.519Z,94.40
2023-01-30T08:40:51.511Z,93.47
2023-01-30T08:41:51.503Z,93.26
2023-01-30T08:42:51.493Z,92.60
2023-01-30T08:43:51.478Z,91.98
2023-01-30T08:44:51.473Z,92.29
2023-01-30T08:45:51.478Z,92.29
2023-01-30T08:46:51.440Z,91.56
2023-01-30T08:47:51.452Z,91.46
2023-01-30T08:48:51.411Z,91.05
2023-01-30T08:49:51.430Z,91.36
2023-01-30T08:50:51.406Z,90.74
2023-01-30T08:51:51.415Z,91.26
2023-01-30T08:52:51.360Z,91.26
2023-01-30T08:53:51.327Z,91.61
2023-01-30T08:54:51.339Z,90.74
2023-01-30T08:55:51.307Z,90.12
2023-01-30T08:56:51.354Z,89.40
2023-01-30T08:57:51.372Z,88.89
2023-01-30T08:58:51.279Z,89.61
2023-01-30T08:59:51.281Z,89.29
2023-01-30T09:00:51.326Z,89.19
2023-01-30T09:01:51.297Z,89.81
2023-01-30T09:02:51.277Z,89.40
2023-01-30T09:03:51.203Z,90.02
2023-01-30T09:04:51.261Z,89.19
2023-01-30T09:05:51.185Z,88.57
2023-01-30T09:06:51.186Z,88.47
2023-01-30T09:07:51.164Z,88.26
2023-01-30T09:08:51.170Z,88.98
2023-01-30T09:09:51.151Z,88.47
2023-01-30T09:10:51.122Z,88.47
2023-01-30T09:11:51.120Z,88.06
2023-01-30T09:12:51.139Z,88.47
2023-01-30T09:13:51.086Z,88.47
2023-01-30T09:14:51.119Z,88.06
2023-01-30T09:15:51.096Z,88.53
2023-01-30T09:16:51.194Z,87.81
2023-01-30T09:17:51.032Z,87.71
2023-01-30T09:18:51.062Z,88.22
2023-01-30T09:19:51.012Z,87.81
2023-01-30T09:20:52.726Z,88.43
2023-01-30T09:21:50.991Z,88.22
2023-01-30T09:22:51.043Z,88.08
2023-01-30T09:23:50.983Z,88.08
2023-01-30T09:24:50.995Z,87.87
2023-01-30T09:25:50.951Z,87.35
2023-01-30T09:26:50.954Z,87.32
2023-01-30T09:27:51.024Z,87.01
2023-01-30T09:28:50.881Z,87.73
2023-01-30T09:29:50.986Z,86.49
2023-01-30T09:30:50.918Z,87.11
2023-01-30T09:31:50.840Z,86.32
2023-01-30T09:32:50.848Z,86.63
2023-01-30T09:33:50.881Z,87.26
2023-01-30T09:34:50.867Z,87.46
2023-01-30T09:35:50.797Z,87.05
2023-01-30T09:36:50.821Z,88.53
2023-01-30T09:37:50.870Z,88.74
2023-01-30T09:38:50.760Z,90.91
2023-01-30T09:39:50.786Z,91.46
2023-01-30T09:40:50.977Z,92.29
2023-01-30T09:41:50.730Z,92.29
2023-01-30T09:42:50.773Z,93.01
2023-01-30T09:43:50.721Z,92.64
2023-01-30T09:44:50.699Z,93.16
2023-01-30T09:45:50.848Z,91.88
2023-01-30T09:46:50.690Z,91.77
2023-01-30T09:47:50.766Z,91.36
2023-01-30T09:48:50.618Z,91.36
2023-01-30T09:49:50.710Z,90.70
2023-01-30T09:50:50.617Z,89.87
2023-01-30T09:51:50.596Z,89.05
2023-01-30T09:52:50.624Z,88.22
2023-01-30T09:53:50.716Z,88.64
2023-01-30T09:54:50.579Z,87.19
2023-01-30T09:55:50.695Z,88.74
2023-01-30T09:56:50.507Z,88.43
2023-01-30T09:57:50.637Z,87.92
2023-01-30T09:58:50.513Z,87.40
2023-01-30T09:59:50.633Z,87.71
2023-01-30T10:00:50.500Z,87.19
2023-01-30T10:01:50.455Z,87.56
2023-01-30T10:02:50.499Z,87.56
2023-01-30T10:03:50.434Z,87.05
2023-01-30T10:05:00.875Z,87.56
2023-01-30T10:05:51.419Z,87.56
2023-01-30T10:06:50.448Z,87.42
2023-01-30T10:07:50.486Z,87.21
2023-01-30T10:08:50.356Z,86.29
2023-01-30T10:09:50.356Z,86.60
2023-01-30T10:11:00.820Z,85.81
2023-01-30T10:11:51.319Z,86.32
2023-01-30T10:12:50.308Z,86.53
2023-01-30T10:13:50.416Z,87.05
2023-01-30T10:14:50.306Z,86.22
2023-01-30T10:15:50.321Z,86.53
2023-01-30T10:16:50.259Z,86.94
2023-01-30T10:17:50.235Z,85.50
2023-01-30T10:18:50.241Z,85.60
2023-01-30T10:19:50.298Z,86.02
2023-01-30T10:20:50.192Z,85.30
2023-01-30T10:21:50.194Z,85.91
2023-01-30T10:22:50.191Z,86.90
2023-01-30T10:23:50.157Z,85.97
2023-01-30T10:24:50.244Z,85.46
2023-01-30T10:25:50.139Z,85.77
2023-01-30T10:26:50.186Z,86.29
2023-01-30T10:27:50.216Z,86.60
2023-01-30T10:28:58.902Z,87.11
2023-01-30T10:29:51.090Z,86.49
2023-01-30T10:30:50.377Z,86.60
2023-01-30T10:31:50.105Z,85.52
2023-01-30T10:32:50.061Z,83.94
2023-01-30T10:33:50.020Z,84.05
2023-01-30T10:34:50.148Z,84.45
2023-01-30T10:35:50.014Z,84.49
2023-01-30T10:36:49.988Z,84.08
2023-01-30T10:37:49.964Z,83.47
2023-01-30T10:38:50.190Z,83.56
2023-01-30T10:39:55.233Z,84.70
2023-01-30T10:40:50.938Z,85.31
2023-01-30T10:41:50.021Z,84.39
2023-01-30T10:42:50.062Z,83.50
2023-01-30T10:43:50.214Z,83.40
2023-01-30T10:44:49.970Z,84.43
2023-01-30T10:45:49.872Z,84.33
2023-01-30T10:46:49.892Z,84.94
2023-01-30T10:47:49.831Z,84.33
2023-01-30T10:48:49.831Z,84.53
2023-01-30T10:49:49.889Z,84.53
2023-01-30T10:50:49.877Z,84.33
2023-01-30T10:51:49.780Z,83.36
2023-01-30T10:52:49.826Z,83.87
2023-01-30T10:53:49.766Z,83.36
2023-01-30T10:54:49.771Z,83.47
2023-01-30T10:55:49.817Z,82.98
2023-01-30T10:56:49.747Z,82.68
2023-01-30T10:57:49.773Z,83.26
2023-01-30T10:58:49.794Z,83.05
2023-01-30T10:59:49.814Z,82.54
2023-01-30T11:00:49.667Z,82.74
2023-01-30T11:01:49.687Z,82.74
2023-01-30T11:02:51.705Z,82.64
2023-01-30T11:03:49.632Z,83.15
2023-01-30T11:04:49.640Z,82.84
2023-01-30T11:05:49.663Z,82.95
2023-01-30T11:06:49.670Z,83.15
2023-01-30T11:07:49.606Z,82.60
2023-01-30T11:08:49.677Z,82.19
2023-01-30T11:09:49.556Z,82.12
2023-01-30T11:10:49.678Z,82.60
2023-01-30T11:11:49.542Z,82.29
2023-01-30T11:12:49.519Z,82.21
2023-01-30T11:13:49.675Z,80.77
2023-01-30T11:14:49.542Z,80.33
2023-01-30T11:15:49.513Z,80.43
2023-01-30T11:16:49.761Z,80.53
2023-01-30T11:17:49.458Z,79.50
2023-01-30T11:19:50.536Z,78.20
2023-01-30T11:20:49.460Z,78.37
2023-01-30T11:21:49.397Z,78.92
2023-01-30T11:22:49.395Z,79.03
2023-01-30T11:23:49.462Z,79.85
2023-01-30T11:24:49.375Z,80.05
2023-01-30T11:25:52.790Z,79.75
2023-01-30T11:26:50.415Z,79.16
2023-01-30T11:27:49.370Z,79.99
2023-01-30T11:28:49.285Z,79.79
2023-01-30T11:29:49.367Z,79.61
2023-01-30T11:30:49.354Z,79.72
2023-01-30T11:31:49.572Z,80.13
2023-01-30T11:32:49.321Z,80.68
2023-01-30T11:33:49.254Z,80.99
2023-01-30T11:34:49.383Z,80.79
2023-01-30T11:35:49.268Z,80.47
2023-01-30T11:36:49.197Z,81.51
2023-01-30T11:37:49.208Z,81.09
2023-01-30T11:38:49.203Z,81.09
2023-01-30T11:39:49.153Z,80.68
2023-01-30T11:40:49.207Z,81.09
2023-01-30T11:41:49.143Z,81.20
2023-01-30T11:42:49.340Z,80.79
2023-01-30T11:43:49.140Z,80.99
2023-01-30T11:44:49.085Z,81.30
2023-01-30T11:45:49.138Z,83.09
2023-01-30T11:46:49.068Z,85.57
2023-01-30T11:47:57.030Z,86.12
2023-01-30T11:49:11.147Z,86.84
2023-01-30T11:50:01.479Z,86.43
2023-01-30T11:50:50.261Z,85.71
2023-01-30T11:51:48.990Z,84.01
2023-01-30T11:52:48.988Z,83.29
2023-01-30T11:53:48.992Z,83.36
2023-01-30T11:54:49.042Z,83.87
2023-01-30T11:56:01.894Z,83.36
2023-01-30T11:56:49.944Z,83.15
2023-01-30T11:57:48.916Z,83.47
2023-01-30T11:58:49.273Z,82.84
2023-01-30T11:59:48.901Z,83.12
2023-01-30T12:00:48.904Z,81.81
2023-01-30T12:01:48.899Z,81.71
2023-01-30T12:02:48.872Z,82.47
2023-01-30T12:03:48.863Z,83.50
2023-01-30T12:04:48.830Z,83.91
2023-01-30T12:05:48.904Z,83.91
2023-01-30T12:06:48.792Z,84.53
2023-01-30T12:07:48.871Z,84.53
2023-01-30T12:08:48.759Z,84.33
2023-01-30T12:09:48.778Z,84.88
2023-01-30T12:10:48.845Z,85.50
2023-01-30T12:11:48.781Z,86.22
2023-01-30T12:12:48.725Z,86.53
2023-01-30T12:13:48.703Z,87.40
2023-01-30T12:14:48.692Z,86.47
2023-01-30T12:15:48.734Z,86.36
2023-01-30T12:16:48.658Z,86.68
2023-01-30T12:17:48.696Z,86.78
2023-01-30T12:18:48.637Z,87.08
2023-01-30T12:19:48.634Z,87.50
2023-01-30T12:20:48.634Z,87.19
2023-01-30T12:21:48.604Z,87.71
2023-01-30T12:22:48.580Z,88.02
2023-01-30T12:23:48.569Z,88.08
2023-01-30T12:24:48.552Z,87.92
2023-01-30T12:25:48.624Z,88.02
2023-01-30T12:26:48.636Z,88.12
2023-01-30T12:27:48.517Z,88.22
2023-01-30T12:28:48.514Z,88.22
2023-01-30T12:29:48.507Z,88.64
2023-01-30T12:30:48.538Z,88.64
2023-01-30T12:31:48.468Z,88.53
2023-01-30T12:32:48.483Z,88.43
2023-01-30T12:33:48.467Z,88.32
2023-01-30T12:34:48.432Z,88.74
2023-01-30T12:35:49.092Z,88.95
2023-01-30T12:36:48.407Z,89.67
2023-01-30T12:37:48.402Z,90.74
2023-01-30T12:38:48.395Z,91.46
2023-01-30T12:39:48.356Z,92.29
2023-01-30T12:40:48.352Z,92.44
2023-01-30T12:41:48.326Z,92.95
2023-01-30T12:42:48.314Z,93.47
2023-01-30T12:43:48.362Z,93.68
2023-01-30T12:44:48.296Z,94.09
2023-01-30T12:45:48.384Z,93.98
2023-01-30T12:46:48.259Z,93.12
2023-01-30T12:47:48.486Z,92.50
2023-01-30T12:48:57.162Z,91.42
2023-01-30T12:49:49.240Z,91.52
2023-01-30T12:50:48.266Z,90.04
2023-01-30T12:51:48.449Z,90.35
2023-01-30T12:52:48.267Z,90.45
2023-01-30T12:53:48.286Z,88.80
2023-01-30T12:54:48.432Z,88.29